Latest Weather Observations for Cobar

IDN60801

Issued at 11:35 pm EST Friday 22 August 2014 (issued every 30 minutes, with the page automatically refreshed every 10 minutes)

About weather observations | Map of weather stations | Latest weather observations for NSW | Other Formats
Station Details ID: 048027 Name: COBAR MO Lat: -31.48 Lon: 145.83 Height: 260.0 m
Data from the previous 72 hours. | See also: Recent months at Cobar
Date/Time
EST
Temp
°C
App
Temp
°C
Dew
Point
Rel
Hum
%
Delta-T
°C
Wind Press
QNH
hPa
Press
MSL
hPa
Rain
since 9 am
mm
Dir
 
Spd
km/h
Gust
km/h
Spd
kts
Gust
kts
22/11:30pm 11.7 8.7 7.8 77 1.9 E 13 15 7 8 1026.5 - 0.0
22/11:00pm 11.8 9.2 7.9 77 1.9 E 11 13 6 7 1026.7 - 0.0
22/10:30pm 12.1 9.2 8.3 77 1.9 E 13 15 7 8 1026.7 - 0.0
22/10:00pm 12.3 9.4 8.3 76 2.0 E 13 15 7 8 1026.9 - 0.0
22/09:30pm 12.6 9.8 8.4 75 2.1 E 13 17 7 9 1026.8 - 0.0
22/09:00pm 12.6 10.1 8.4 75 2.1 ESE 11 11 6 6 1026.7 1026.8 0.0
22/08:30pm 12.9 10.4 8.1 72 2.4 E 11 13 6 7 1026.5 - 0.0
22/08:00pm 13.4 11.3 8.4 72 2.5 E 9 11 5 6 1026.2 - 0.0
22/07:30pm 14.0 12.3 8.5 69 2.8 ESE 7 9 4 5 1026.0 - 0.0
22/07:00pm 14.6 12.6 8.5 67 3.1 E 9 11 5 6 1025.8 - 0.0
22/06:30pm 15.4 12.9 8.3 62 3.6 E 11 13 6 7 1025.3 - 0.0
22/06:00pm 16.6 13.7 8.0 57 4.4 E 13 19 7 10 1025.1 1025.2 0.0
22/05:30pm 17.2 13.4 7.5 53 4.9 E 17 26 9 14 1024.8 - 0.0
22/05:00pm 17.7 13.9 7.7 52 5.1 E 17 22 9 12 1024.6 - 0.0
22/04:30pm 18.1 14.2 7.3 49 5.5 E 17 24 9 13 1024.3 - 0.0
22/04:00pm 20.1 16.4 8.0 45 6.3 ESE 17 24 9 13 1024.0 - 0.0
22/03:30pm 19.4 16.8 7.8 47 6.0 ESE 11 19 6 10 1024.1 - 0.0
22/03:00pm 19.9 16.9 7.5 44 6.4 ENE 13 20 7 11 1024.3 1024.5 0.0
22/02:30pm 19.3 16.4 6.4 43 6.5 ENE 11 17 6 9 1024.6 - 0.0
22/02:00pm 19.4 16.0 7.6 46 6.1 E 15 26 8 14 1024.8 - 0.0
22/01:30pm 19.4 16.4 7.8 47 6.0 ENE 13 22 7 12 1025.1 - 0.0
22/01:00pm 18.9 16.0 8.1 49 5.6 E 13 20 7 11 1025.5 - 0.0
22/12:30pm 18.7 14.7 8.1 50 5.5 ENE 19 24 10 13 1026.2 - 0.0
22/12:00pm 18.4 14.4 8.2 51 5.3 ENE 19 30 10 16 1026.7 1026.8 0.0
22/11:30am 17.7 13.9 7.7 52 5.1 NE 17 26 9 14 1027.1 - 0.0
22/11:00am 16.7 13.0 8.1 57 4.4 NE 17 26 9 14 1027.3 - 0.0
22/10:30am 15.8 11.4 7.4 57 4.2 ENE 20 30 11 16 1027.6 - 0.0
22/10:00am 15.0 9.8 7.4 60 3.8 ENE 24 32 13 17 1027.7 - 0.0
22/09:30am 14.4 9.9 7.1 61 3.6 NE 20 30 11 16 1027.7 - 0.0
22/09:00am 13.9 9.5 7.2 64 3.3 ENE 20 28 11 15 1027.5 1027.7 0.0
22/08:30am 11.8 7.6 7.3 74 2.2 E 19 28 10 15 1027.3 - 0.0
22/08:00am 10.3 6.4 6.9 79 1.6 E 17 26 9 14 1027.0 - 0.0
22/07:30am 9.2 5.2 6.6 84 1.2 E 17 20 9 11 1026.6 - 0.0
22/07:00am 8.3 4.7 6.6 89 0.8 E 15 20 8 11 1026.2 - 0.0
22/06:30am 8.5 4.9 6.6 88 0.9 E 15 19 8 10 1026.0 - 0.0
22/06:00am 8.5 4.9 6.6 88 0.9 E 15 19 8 10 1025.6 1025.7 0.0
22/05:30am 8.6 5.0 6.7 88 0.9 E 15 19 8 10 1025.3 - 0.0
22/05:00am 8.9 4.9 6.5 85 1.1 E 17 20 9 11 1025.1 - 0.0
22/04:30am 9.1 5.1 6.5 84 1.2 E 17 22 9 12 1024.8 - 0.0
22/04:00am 9.6 6.0 6.6 81 1.4 E 15 19 8 10 1024.8 - 0.0
22/03:30am 9.7 5.7 6.5 80 1.5 E 17 24 9 13 1024.7 - 0.0
22/03:00am 9.4 5.7 6.4 81 1.4 ESE 15 19 8 10 1024.8 1024.9 0.0
22/02:30am 9.4 5.7 6.2 80 1.5 ESE 15 20 8 11 1024.9 - 0.0
22/02:00am 10.0 5.9 6.2 77 1.8 ESE 17 22 9 12 1025.1 - 0.0
22/01:30am 10.1 6.0 6.0 76 1.9 E 17 24 9 13 1025.2 - 0.0
22/01:00am 9.8 6.0 5.7 75 1.9 E 15 20 8 11 1025.5 - 0.0
22/12:30am 10.2 5.9 5.4 72 2.2 E 17 20 9 11 1025.5 - 0.0
22/12:00am 10.4 6.5 5.2 70 2.4 ESE 15 19 8 10 1025.5 1025.6 0.0
 
Date/Time
EST
Temp
°C
App
Temp
°C
Dew
Point
Rel
Hum
%
Delta-T
°C
Wind Press
QNH
hPa
Press
MSL
hPa
Rain
since 9 am
mm
Dir
 
Spd
km/h
Gust
km/h
Spd
kts
Gust
kts
21/11:30pm 10.8 6.8 5.1 68 2.6 ESE 15 20 8 11 1025.5 - 0.0
21/11:00pm 10.8 7.2 5.1 68 2.6 ESE 13 17 7 9 1025.5 - 0.0
21/10:30pm 10.4 7.6 5.2 70 2.4 ESE 9 13 5 7 1025.4 - 0.0
21/10:00pm 10.9 8.1 5.0 67 2.7 SE 9 13 5 7 1025.5 - 0.0
21/09:30pm 11.3 8.4 4.7 64 3.0 SE 9 11 5 6 1025.3 - 0.0
21/09:00pm 11.8 8.9 4.6 61 3.3 SE 9 11 5 6 1025.1 1025.2 0.0
21/08:30pm 12.2 9.3 4.8 60 3.4 SE 9 11 5 6 1025.0 - 0.0
21/08:00pm 12.3 9.5 5.0 61 3.4 SE 9 11 5 6 1024.8 - 0.0
21/07:30pm 12.8 10.0 5.1 59 3.6 SE 9 11 5 6 1024.4 - 0.0
21/07:00pm 14.4 10.9 3.7 48 4.9 SE 11 13 6 7 1024.2 - 0.0
21/06:30pm 15.2 11.4 3.8 46 5.3 SE 13 19 7 10 1023.9 - 0.0
21/06:00pm 16.0 11.7 3.5 43 5.8 SE 15 22 8 12 1023.7 1023.9 0.0
21/05:30pm 16.7 12.1 3.7 42 6.1 SE 17 24 9 13 1023.4 - 0.0
21/05:00pm 17.4 12.8 3.6 40 6.5 ESE 17 24 9 13 1023.0 - 0.0
21/04:30pm 17.8 12.7 3.3 38 6.8 SE 19 28 10 15 1022.8 - 0.0
21/04:00pm 17.8 12.7 3.3 38 6.8 ESE 19 28 10 15 1022.6 - 0.0
21/03:30pm 17.8 12.6 3.3 38 6.8 SE 20 28 11 15 1022.5 - 0.0
21/03:00pm 17.8 12.9 4.2 40 6.5 SE 19 30 10 16 1022.7 1022.8 0.0
21/02:30pm 17.4 12.4 3.8 40 6.4 SSE 19 28 10 15 1022.9 - 0.0
21/02:00pm 17.5 12.6 4.3 41 6.3 ESE 19 28 10 15 1023.1 - 0.0
21/01:30pm 17.4 12.9 4.1 41 6.3 SE 17 28 9 15 1023.5 - 0.0
21/01:00pm 17.2 12.7 4.1 41 6.2 ESE 17 26 9 14 1023.7 - 0.0
21/12:30pm 16.3 11.8 4.2 44 5.7 ESE 17 26 9 14 1024.4 - 0.0
21/12:00pm 16.4 11.9 4.1 44 5.8 SE 17 24 9 13 1024.9 1025.0 0.0
21/11:30am 15.5 11.1 4.7 48 5.1 ESE 17 24 9 13 1025.3 - 0.0
21/11:00am 14.6 10.6 4.8 52 4.6 ESE 15 22 8 12 1025.6 - 0.0
21/10:30am 14.0 9.7 5.4 56 4.1 ESE 17 22 9 12 1025.9 - 0.0
21/10:00am 13.5 8.9 5.5 58 3.8 SE 19 26 10 14 1026.1 - 0.0
21/09:30am 12.4 7.8 5.6 63 3.2 ESE 19 26 10 14 1026.1 - 0.0
21/09:00am 11.2 6.4 5.6 68 2.6 ESE 20 28 11 15 1026.1 1026.2 0.0
21/08:30am 10.0 5.2 4.9 70 2.3 ESE 19 26 10 14 1026.1 - 0.0
21/08:00am 9.1 4.7 4.6 73 2.0 ESE 17 22 9 12 1025.9 - 0.0
21/07:30am 7.6 3.5 4.2 79 1.5 ESE 15 20 8 11 1025.7 - 0.0
21/07:00am 6.2 2.3 3.6 83 1.1 ESE 13 19 7 10 1025.4 - 0.0
21/06:30am 5.6 1.7 3.5 86 0.9 ESE 13 15 7 8 1025.0 - 0.0
21/06:00am 6.0 2.2 3.7 85 1.0 ESE 13 17 7 9 1024.7 1024.8 0.0
21/05:30am 6.1 2.2 3.5 83 1.1 ESE 13 17 7 9 1024.4 - 0.0
21/05:00am 6.5 2.6 3.4 80 1.3 ESE 13 17 7 9 1024.4 - 0.0
21/04:30am 7.1 2.9 3.6 78 1.5 ESE 15 19 8 10 1024.2 - 0.0
21/04:00am 7.8 3.9 3.6 75 1.8 ESE 13 17 7 9 1023.9 - 0.0
21/03:30am 8.4 4.2 3.6 72 2.1 ESE 15 19 8 10 1023.8 - 0.0
21/03:00am 9.0 5.1 3.5 68 2.4 ESE 13 19 7 10 1023.8 1024.0 0.0
21/02:30am 8.5 4.9 3.2 69 2.3 ESE 11 17 6 9 1024.0 - 0.0
21/02:00am 7.8 4.7 3.6 75 1.8 ESE 9 11 5 6 1024.2 - 0.0
21/01:30am 7.7 4.7 4.0 77 1.6 ESE 9 13 5 7 1024.4 - 0.0
21/01:00am 8.0 5.0 4.1 76 1.7 ESE 9 11 5 6 1024.6 - 0.0
21/12:30am 8.8 5.4 4.0 72 2.1 ESE 11 15 6 8 1024.7 - 0.0
21/12:00am 9.2 5.4 4.0 70 2.3 E 13 17 7 9 1024.7 1024.8 0.0
 
Date/Time
EST
Temp
°C
App
Temp
°C
Dew
Point
Rel
Hum
%
Delta-T
°C
Wind Press
QNH
hPa
Press
MSL
hPa
Rain
since 9 am
mm
Dir
 
Spd
km/h
Gust
km/h
Spd
kts
Gust
kts
20/11:30pm 9.9 5.8 4.1 67 2.6 ESE 15 19 8 10 1024.8 - 0.0
20/11:00pm 9.6 6.3 4.5 70 2.3 ESE 11 15 6 8 1024.7 - 0.0
20/10:30pm 9.2 5.9 4.8 74 2.0 E 11 13 6 7 1024.4 - 0.0
20/10:00pm 9.8 6.9 4.5 69 2.4 E 9 11 5 6 1024.4 - 0.0
20/09:30pm 10.4 7.0 4.2 65 2.8 E 11 13 6 7 1024.2 - 0.0
20/09:00pm 10.8 7.0 3.9 62 3.1 E 13 15 7 8 1024.2 1024.4 0.0
20/08:30pm 11.3 7.9 4.0 61 3.3 E 11 15 6 8 1023.9 - 0.0
20/08:00pm 11.9 9.0 4.5 60 3.4 E 9 9 5 5 1023.7 - 0.0
20/07:30pm 12.6 9.1 3.5 54 4.1 E 11 13 6 7 1023.4 - 0.0
20/07:00pm 13.1 10.0 3.6 52 4.3 E 9 9 5 5 1023.0 - 0.0
20/06:30pm 14.3 11.6 3.9 49 4.8 ESE 7 9 4 5 1022.7 - 0.0
20/06:00pm 16.0 12.5 1.3 37 6.5 SSE 9 15 5 8 1022.4 1022.5 0.0
20/05:30pm 16.9 13.1 1.8 36 6.8 SE 11 19 6 10 1022.2 - 0.0
20/05:00pm 17.4 12.6 0.0 31 7.6 SE 15 20 8 11 1022.0 - 0.0
20/04:30pm 17.9 12.2 -0.6 28 8.0 S 19 28 10 15 1021.8 - 0.0
20/04:00pm 18.1 14.4 0.2 30 7.9 ESE 9 17 5 9 1021.7 - 0.0
20/03:30pm 18.3 13.4 -0.5 28 8.2 E 15 22 8 12 1021.8 - 0.0
20/03:00pm 18.4 13.9 -0.4 28 8.2 SSE 13 19 7 10 1022.0 1022.1 0.0
20/02:30pm 18.5 14.2 0.9 30 7.9 E 13 19 7 10 1022.1 - 0.0
20/02:00pm 18.7 15.1 0.9 30 8.0 E 9 17 5 9 1022.3 - 0.0
20/01:30pm 17.8 13.1 1.0 32 7.5 E 15 20 8 11 1022.7 - 0.0
20/01:00pm 17.7 14.0 -0.2 29 7.8 ESE 9 20 5 11 1023.0 - 0.0
20/12:30pm 16.7 12.8 1.2 35 6.9 ESE 11 19 6 10 1023.5 - 0.0
20/12:00pm 17.5 14.3 3.1 38 6.7 ENE 9 19 5 10 1023.9 1024.1 0.0
20/11:30am 17.6 13.5 4.1 40 6.4 ENE 15 24 8 13 1024.2 - 0.0
20/11:00am 16.8 12.3 4.1 43 6.0 NE 17 24 9 13 1024.4 - 0.0
20/10:30am 16.2 11.8 4.6 46 5.5 ENE 17 20 9 11 1024.6 - 0.0
20/10:00am 15.4 10.6 4.6 48 5.1 ENE 19 24 10 13 1024.6 - 0.0
20/09:30am 14.3 10.9 5.7 56 4.1 E 13 19 7 10 1024.3 - 0.0
20/09:00am 12.9 9.9 6.0 63 3.3 E 11 15 6 8 1024.2 1024.4 0.2
20/08:30am 11.6 8.7 6.3 70 2.5 ESE 11 17 6 9 1024.0 - 0.2
20/08:00am 10.3 6.6 6.3 76 1.9 E 15 19 8 10 1023.6 - 0.2
20/07:30am 8.3 5.7 5.9 85 1.1 ESE 9 11 5 6 1023.1 - 0.2
20/07:00am 7.2 4.5 5.7 90 0.7 ESE 9 9 5 5 1022.9 - 0.2
20/06:30am 8.0 5.4 6.3 89 0.8 SSE 9 11 5 6 1022.6 - 0.2
20/06:00am 7.1 4.9 6.0 93 0.5 SE 7 9 4 5 1022.3 1022.4 0.2
20/05:30am 7.8 5.6 6.3 90 0.7 SE 7 9 4 5 1022.1 - 0.2
20/05:00am 8.7 6.2 6.6 87 1.0 SSE 9 11 5 6 1022.0 - 0.2
20/04:30am 8.7 6.3 6.8 88 0.9 S 9 9 5 5 1021.8 - 0.2
20/04:00am 8.4 6.4 6.9 90 0.7 S 7 9 4 5 1021.5 - 0.2
20/03:30am 8.6 6.6 6.9 89 0.8 SSE 7 9 4 5 1021.4 - 0.2
20/03:00am 8.7 6.7 7.0 89 0.8 SSE 7 9 4 5 1021.4 1021.5 0.2
20/02:30am 9.4 7.4 7.1 85 1.1 S 7 9 4 5 1021.6 - 0.2
20/02:00am 9.1 7.1 7.2 88 0.9 SSE 7 9 4 5 1021.6 - 0.2
20/01:30am 9.4 7.4 7.1 85 1.1 SSE 7 9 4 5 1021.7 - 0.2
20/01:00am 10.2 7.8 7.1 81 1.5 SSE 9 9 5 5 1021.6 - 0.2
20/12:30am 10.3 7.9 7.2 81 1.5 SSE 9 9 5 5 1021.6 - 0.2
20/12:00am 10.3 8.0 7.4 82 1.4 SSE 9 11 5 6 1021.6 1021.7 0.2

Other Formats:

Comma delimited format used in spreadsheet applications
http://www.bom.gov.au/fwo/IDN60801/IDN60801.94711.axf

JavaScript Object Notation format (JSON) in row-major order
http://www.bom.gov.au/fwo/IDN60801/IDN60801.94711.json